createdAt,value
2023-09-11T00:00:54.434Z,0.08
2023-09-11T00:03:22.027Z,0.10
2023-09-11T00:06:04.261Z,0.05
2023-09-11T00:08:32.145Z,0.10
2023-09-11T00:11:00.762Z,0.00
2023-09-11T00:13:29.852Z,0.00
2023-09-11T00:15:56.982Z,0.00
2023-09-11T00:18:25.328Z,0.00
2023-09-11T00:20:52.923Z,0.00
2023-09-11T00:23:19.973Z,0.00
2023-09-11T00:25:47.046Z,0.00
2023-09-11T00:28:14.199Z,9.45
2023-09-11T00:30:41.132Z,9.25
2023-09-11T00:33:08.059Z,10.75
2023-09-11T00:35:35.384Z,10.35
2023-09-11T00:38:02.389Z,10.15
2023-09-11T00:40:30.006Z,10.43
2023-09-11T00:42:57.257Z,10.43
2023-09-11T00:45:27.375Z,11.23
2023-09-11T00:47:55.616Z,10.35
2023-09-11T00:50:23.974Z,8.68
2023-09-11T00:52:51.702Z,9.05
2023-09-11T00:55:20.469Z,7.97
2023-09-11T00:57:47.504Z,6.90
2023-09-11T01:00:15.273Z,7.15
2023-09-11T01:02:42.720Z,6.22
2023-09-11T01:05:12.830Z,6.05
2023-09-11T01:07:40.268Z,5.88
2023-09-11T01:10:08.133Z,7.35
2023-09-11T01:12:39.337Z,5.75
2023-09-11T01:15:08.182Z,6.13
2023-09-11T01:17:41.178Z,5.07
2023-09-11T01:20:27.661Z,5.45
2023-09-11T01:23:02.231Z,5.05
2023-09-11T01:25:53.248Z,5.60
2023-09-11T01:28:38.648Z,5.03
2023-09-11T01:31:06.478Z,4.93
2023-09-11T01:33:33.888Z,3.85
2023-09-11T01:36:00.829Z,4.68
2023-09-11T01:38:28.830Z,4.50
2023-09-11T01:41:01.223Z,4.07
2023-09-11T01:43:33.261Z,3.85
2023-09-11T01:46:04.311Z,3.42
2023-09-11T01:48:33.347Z,3.90
2023-09-11T01:51:01.198Z,4.70
2023-09-11T01:53:28.387Z,3.97
2023-09-11T01:55:56.920Z,3.53
2023-09-11T01:58:24.386Z,3.55
2023-09-11T02:00:56.037Z,3.15
2023-09-11T02:03:23.091Z,2.40
2023-09-11T02:05:50.831Z,2.30
2023-09-11T02:08:17.827Z,2.00
2023-09-11T02:10:44.750Z,2.40
2023-09-11T02:13:11.739Z,2.40
2023-09-11T02:15:38.627Z,1.95
2023-09-11T02:18:05.812Z,2.17
2023-09-11T02:20:32.829Z,1.88
2023-09-11T02:23:03.036Z,2.42
2023-09-11T02:25:30.555Z,2.05
2023-09-11T02:27:57.437Z,2.42
2023-09-11T02:30:24.693Z,1.90
2023-09-11T02:32:54.231Z,2.22
2023-09-11T02:35:21.280Z,2.72
2023-09-11T02:37:48.142Z,2.58
2023-09-11T02:40:15.141Z,2.15
2023-09-11T02:42:42.064Z,1.90
2023-09-11T02:45:09.378Z,1.58
2023-09-11T02:47:36.318Z,1.90
2023-09-11T02:50:04.721Z,2.20
2023-09-11T02:52:31.893Z,2.17
2023-09-11T02:54:59.175Z,2.40
2023-09-11T02:57:29.140Z,2.42
2023-09-11T02:59:56.763Z,2.25
2023-09-11T03:02:24.283Z,2.22
2023-09-11T03:04:58.406Z,2.33
2023-09-11T03:07:25.628Z,1.95
2023-09-11T03:09:52.697Z,2.65
2023-09-11T03:12:19.629Z,2.10
2023-09-11T03:14:46.625Z,2.50
2023-09-11T03:17:15.354Z,2.50
2023-09-11T03:19:45.708Z,2.22
2023-09-11T03:22:12.714Z,1.90
2023-09-11T03:24:42.240Z,1.77
2023-09-11T03:27:09.669Z,2.00
2023-09-11T03:29:36.583Z,1.27
2023-09-11T03:32:03.520Z,1.80
2023-09-11T03:34:31.758Z,1.88
2023-09-11T03:36:58.764Z,1.98
2023-09-11T03:39:25.642Z,1.48
2023-09-11T03:41:52.760Z,1.63
2023-09-11T03:44:19.823Z,1.13
2023-09-11T03:46:47.153Z,1.17
2023-09-11T03:49:14.577Z,1.50
2023-09-11T03:51:42.734Z,1.48
2023-09-11T03:54:12.400Z,1.20
2023-09-11T03:56:39.448Z,1.33
2023-09-11T03:59:06.400Z,1.23
2023-09-11T04:01:33.327Z,1.90
2023-09-11T04:04:00.505Z,1.40
2023-09-11T04:06:28.151Z,1.48
2023-09-11T04:08:55.396Z,1.35
2023-09-11T04:11:24.182Z,1.77
2023-09-11T04:13:52.924Z,1.13
2023-09-11T04:16:20.848Z,0.90
2023-09-11T04:18:48.043Z,0.70
2023-09-11T04:21:15.095Z,1.63
2023-09-11T04:23:42.048Z,2.25
2023-09-11T04:26:10.088Z,3.45
2023-09-11T04:28:37.450Z,4.20
2023-09-11T04:31:04.781Z,5.47
2023-09-11T04:33:32.425Z,6.30
2023-09-11T04:36:00.589Z,7.55
2023-09-11T04:38:28.037Z,5.80
2023-09-11T04:40:58.374Z,6.95
2023-09-11T04:43:26.435Z,5.32
2023-09-11T04:45:53.370Z,3.85
2023-09-11T04:48:20.403Z,3.83
2023-09-11T04:50:47.922Z,3.72
2023-09-11T04:53:14.870Z,3.75
2023-09-11T04:55:42.736Z,4.05
2023-09-11T04:58:09.697Z,3.47
2023-09-11T05:00:37.030Z,3.58
2023-09-11T05:03:04.263Z,3.10
2023-09-11T05:05:32.266Z,2.70
2023-09-11T05:07:59.415Z,2.70
2023-09-11T05:10:27.107Z,2.30
2023-09-11T05:12:53.962Z,2.30
2023-09-11T05:15:22.163Z,1.95
2023-09-11T05:17:49.197Z,1.95
2023-09-11T05:20:16.284Z,2.70
2023-09-11T05:22:46.021Z,1.67
2023-09-11T05:25:13.456Z,1.58
2023-09-11T05:27:42.003Z,2.10
2023-09-11T05:30:09.344Z,2.30
2023-09-11T05:32:36.632Z,2.00
2023-09-11T05:35:06.618Z,1.83
2023-09-11T05:37:33.786Z,2.00
2023-09-11T05:40:02.040Z,2.25
2023-09-11T05:42:30.736Z,1.98
2023-09-11T05:45:01.572Z,1.60
2023-09-11T05:47:28.735Z,2.25
2023-09-11T05:50:00.872Z,2.22
2023-09-11T05:52:28.688Z,1.92
2023-09-11T05:54:56.846Z,1.98
2023-09-11T05:57:23.814Z,2.30
2023-09-11T05:59:50.781Z,2.20
2023-09-11T06:02:17.647Z,1.92
2023-09-11T06:04:44.566Z,1.42
2023-09-11T06:07:13.930Z,1.58
2023-09-11T06:09:41.050Z,1.20
2023-09-11T06:12:08.525Z,1.85
2023-09-11T06:14:39.346Z,1.58
2023-09-11T06:17:06.580Z,1.10
2023-09-11T06:19:33.493Z,1.33
2023-09-11T06:22:04.141Z,1.38
2023-09-11T06:24:31.084Z,1.30
2023-09-11T06:27:07.863Z,1.58
2023-09-11T06:29:35.253Z,1.40
2023-09-11T06:32:02.245Z,1.48
2023-09-11T06:34:31.108Z,1.45
2023-09-11T06:36:59.964Z,1.55
2023-09-11T06:39:27.418Z,1.85
2023-09-11T06:41:57.299Z,1.73
2023-09-11T06:44:26.372Z,1.48
2023-09-11T06:46:53.317Z,1.23
2023-09-11T06:49:21.752Z,1.20
2023-09-11T06:51:48.654Z,1.20
2023-09-11T06:54:18.463Z,2.00
2023-09-11T06:56:48.463Z,1.35
2023-09-11T06:59:16.414Z,1.42
2023-09-11T07:01:43.244Z,1.27
2023-09-11T07:04:13.239Z,1.48
2023-09-11T07:06:42.057Z,1.30
2023-09-11T07:09:09.414Z,1.55
2023-09-11T07:11:36.807Z,1.38
2023-09-11T07:14:06.801Z,1.52
2023-09-11T07:16:34.004Z,1.60
2023-09-11T07:19:01.099Z,1.67
2023-09-11T07:21:29.060Z,1.27
2023-09-11T07:23:56.408Z,1.58
2023-09-11T07:26:23.395Z,1.92
2023-09-11T07:29:04.098Z,1.42
2023-09-11T07:31:33.688Z,1.63
2023-09-11T07:34:01.084Z,1.45
2023-09-11T07:36:29.763Z,1.95
2023-09-11T07:38:57.110Z,1.38
2023-09-11T07:41:24.623Z,1.83
2023-09-11T07:43:52.097Z,1.38
2023-09-11T07:46:21.545Z,1.88
2023-09-11T07:48:49.911Z,1.60
2023-09-11T07:51:16.979Z,1.67
2023-09-11T07:53:44.699Z,1.33
2023-09-11T07:56:12.280Z,2.47
2023-09-11T07:58:41.449Z,2.17
2023-09-11T08:01:08.954Z,2.00
2023-09-11T08:03:36.714Z,1.58
2023-09-11T08:06:07.096Z,1.50
2023-09-11T08:08:34.371Z,2.30
2023-09-11T08:11:18.067Z,1.38
2023-09-11T08:13:47.712Z,1.60
2023-09-11T08:16:16.152Z,1.65
2023-09-11T08:18:45.314Z,2.05
2023-09-11T08:21:14.246Z,1.88
2023-09-11T08:23:45.240Z,1.67
2023-09-11T08:26:12.884Z,1.73
2023-09-11T08:28:40.242Z,1.65
2023-09-11T08:31:09.799Z,1.52
2023-09-11T08:33:52.692Z,2.30
2023-09-11T08:36:23.642Z,1.90
2023-09-11T08:38:50.774Z,2.13
2023-09-11T08:41:19.397Z,1.60
2023-09-11T08:43:48.034Z,2.20
2023-09-11T08:46:20.260Z,3.03
2023-09-11T08:48:50.959Z,2.05
2023-09-11T08:51:24.648Z,2.17
2023-09-11T08:53:53.870Z,2.20
2023-09-11T08:56:21.378Z,1.58
2023-09-11T08:58:53.013Z,1.95
2023-09-11T09:01:24.433Z,1.80
2023-09-11T09:03:59.060Z,2.20
2023-09-11T09:06:27.301Z,2.20
2023-09-11T09:08:55.189Z,1.75
2023-09-11T09:11:25.569Z,2.22
2023-09-11T09:13:53.113Z,2.63
2023-09-11T09:16:21.873Z,1.63
2023-09-11T09:18:52.682Z,2.22
2023-09-11T09:21:21.689Z,1.90
2023-09-11T09:23:48.790Z,2.03
2023-09-11T09:26:17.250Z,1.80
2023-09-11T09:28:49.000Z,2.20
2023-09-11T09:31:24.416Z,2.38
2023-09-11T09:33:57.600Z,2.35
2023-09-11T09:36:24.995Z,2.45
2023-09-11T09:39:03.823Z,2.85
2023-09-11T09:41:30.914Z,2.42
2023-09-11T09:43:58.145Z,2.10
2023-09-11T09:46:26.841Z,2.58
2023-09-11T09:48:54.698Z,2.10
2023-09-11T09:51:23.018Z,4.15
2023-09-11T09:53:55.016Z,2.33
2023-09-11T09:56:23.565Z,3.35
2023-09-11T09:58:52.039Z,3.05
2023-09-11T10:01:21.969Z,2.97
2023-09-11T10:03:55.544Z,2.92
2023-09-11T10:06:32.837Z,2.63
2023-09-11T10:09:09.061Z,2.45
2023-09-11T10:11:37.849Z,2.28
2023-09-11T10:14:10.842Z,2.85
2023-09-11T10:16:39.678Z,2.90
2023-09-11T10:19:06.715Z,2.50
2023-09-11T10:21:34.630Z,2.20
2023-09-11T10:24:03.644Z,2.85
2023-09-11T10:26:47.932Z,2.60
2023-09-11T10:29:23.099Z,2.20
2023-09-11T10:32:36.318Z,2.22
2023-09-11T10:35:06.698Z,3.00
2023-09-11T10:37:40.058Z,2.42
2023-09-11T10:40:08.600Z,2.10
2023-09-11T10:42:36.182Z,2.40
2023-09-11T10:45:05.068Z,2.65
2023-09-11T10:47:31.979Z,2.78
2023-09-11T10:49:59.144Z,3.15
2023-09-11T10:52:28.001Z,2.95
2023-09-11T10:54:55.070Z,3.05
2023-09-11T10:57:22.170Z,3.55
2023-09-11T10:59:50.818Z,2.85
2023-09-11T11:02:22.998Z,2.88
2023-09-11T11:04:50.031Z,2.72
2023-09-11T11:07:17.097Z,2.80
2023-09-11T11:09:51.838Z,3.00
2023-09-11T11:12:35.833Z,3.13
2023-09-11T11:15:25.916Z,2.88
2023-09-11T11:18:15.844Z,2.35
2023-09-11T11:21:15.931Z,3.05
2023-09-11T11:23:57.659Z,2.70
2023-09-11T11:26:28.624Z,3.17
2023-09-11T11:28:58.002Z,3.17
2023-09-11T11:31:25.897Z,2.72
2023-09-11T11:33:53.834Z,3.00
2023-09-11T11:36:21.647Z,3.25
2023-09-11T11:38:48.684Z,2.67
2023-09-11T11:41:16.651Z,2.70
2023-09-11T11:43:44.301Z,3.42
2023-09-11T11:46:13.233Z,3.67
2023-09-11T11:48:42.882Z,2.33
2023-09-11T11:51:10.724Z,2.83
2023-09-11T11:53:40.811Z,2.47
2023-09-11T11:56:08.864Z,2.83
2023-09-11T11:58:36.216Z,2.38
2023-09-11T12:01:08.252Z,1.42
2023-09-11T12:03:48.954Z,1.85
2023-09-11T12:06:17.225Z,1.35
2023-09-11T12:08:46.414Z,1.63
2023-09-11T12:11:13.450Z,1.45
2023-09-11T12:13:50.023Z,1.85
2023-09-11T12:16:20.260Z,2.80
2023-09-11T12:18:48.724Z,3.15
2023-09-11T12:21:16.005Z,4.32
2023-09-11T12:23:43.049Z,2.83
2023-09-11T12:26:10.262Z,2.83
2023-09-11T12:28:37.429Z,2.40
2023-09-11T12:31:04.560Z,2.78
2023-09-11T12:33:36.589Z,2.95
2023-09-11T12:36:05.876Z,2.25
2023-09-11T12:38:32.955Z,2.90
2023-09-11T12:40:59.860Z,1.27
2023-09-11T12:43:27.676Z,1.83
2023-09-11T12:45:54.949Z,1.30
2023-09-11T12:48:22.989Z,1.80
2023-09-11T12:50:50.591Z,1.80
2023-09-11T12:53:17.638Z,1.55
2023-09-11T12:55:44.577Z,2.22
2023-09-11T12:58:11.642Z,1.85
2023-09-11T13:00:44.622Z,3.05
2023-09-11T13:03:12.537Z,2.72
2023-09-11T13:05:40.153Z,1.92
2023-09-11T13:08:09.516Z,1.73
2023-09-11T13:10:37.093Z,1.70
2023-09-11T13:13:07.289Z,1.33
2023-09-11T13:15:35.372Z,1.90
2023-09-11T13:18:02.497Z,1.27
2023-09-11T13:20:30.516Z,1.27
2023-09-11T13:22:57.364Z,1.42
2023-09-11T13:25:24.881Z,2.15
2023-09-11T13:27:51.992Z,3.40
2023-09-11T13:30:22.803Z,1.38
2023-09-11T13:32:50.821Z,1.42
2023-09-11T13:35:17.896Z,1.55
2023-09-11T13:37:44.848Z,1.75
2023-09-11T13:40:13.121Z,1.40
2023-09-11T13:42:40.197Z,1.30
2023-09-11T13:45:10.385Z,1.50
2023-09-11T13:47:37.416Z,1.30
2023-09-11T13:50:08.248Z,1.48
2023-09-11T13:52:35.182Z,2.80
2023-09-11T13:55:02.606Z,1.55
2023-09-11T13:57:31.443Z,1.75
2023-09-11T13:59:58.447Z,2.05
2023-09-11T14:02:28.073Z,2.53
2023-09-11T14:04:56.566Z,2.65
2023-09-11T14:07:23.578Z,1.98
2023-09-11T14:09:50.610Z,6.30
2023-09-11T14:12:17.518Z,5.32
2023-09-11T14:14:44.447Z,4.65
2023-09-11T14:17:11.451Z,2.35
2023-09-11T14:19:38.466Z,1.90
2023-09-11T14:22:05.619Z,1.85
2023-09-11T14:24:34.338Z,2.80
2023-09-11T14:27:01.898Z,3.33
2023-09-11T14:29:29.444Z,4.60
2023-09-11T14:31:56.496Z,1.67
2023-09-11T14:34:23.445Z,2.15
2023-09-11T14:36:55.029Z,2.92
2023-09-11T14:39:28.194Z,5.28
2023-09-11T14:41:56.431Z,5.22
2023-09-11T14:44:24.497Z,3.15
2023-09-11T14:46:51.401Z,4.70
2023-09-11T14:49:18.338Z,4.20
2023-09-11T14:51:46.907Z,2.97
2023-09-11T14:54:14.147Z,4.25
2023-09-11T14:56:42.347Z,2.50
2023-09-11T14:59:09.572Z,3.72
2023-09-11T15:01:36.819Z,2.22
2023-09-11T15:04:05.151Z,1.63
2023-09-11T15:06:32.413Z,2.17
2023-09-11T15:09:01.816Z,1.50
2023-09-11T15:11:28.854Z,1.30
2023-09-11T15:13:56.041Z,1.50
2023-09-11T15:16:24.132Z,2.20
2023-09-11T15:18:53.665Z,1.70
2023-09-11T15:21:21.101Z,1.25
2023-09-11T15:23:48.112Z,3.97
2023-09-11T15:26:17.845Z,3.63
2023-09-11T15:28:44.743Z,1.85
2023-09-11T15:31:11.874Z,1.70
2023-09-11T15:33:38.805Z,1.92
2023-09-11T15:36:08.160Z,2.00
2023-09-11T15:38:39.191Z,1.42
2023-09-11T15:41:09.025Z,1.90
2023-09-11T15:43:39.381Z,2.03
2023-09-11T15:46:09.115Z,1.70
2023-09-11T15:48:37.697Z,2.88
2023-09-11T15:51:06.733Z,2.22
2023-09-11T15:53:35.917Z,1.20
2023-09-11T15:56:03.424Z,1.58
2023-09-11T15:58:30.848Z,1.75
2023-09-11T16:00:58.011Z,1.15
2023-09-11T16:03:29.377Z,0.82
2023-09-11T16:05:57.452Z,0.80
2023-09-11T16:08:24.422Z,1.20
2023-09-11T16:10:51.517Z,1.30
2023-09-11T16:13:18.450Z,2.70
2023-09-11T16:15:45.447Z,2.95
2023-09-11T16:18:12.879Z,2.10
2023-09-11T16:20:43.130Z,1.40
2023-09-11T16:23:10.674Z,1.25
2023-09-11T16:25:40.058Z,1.30
2023-09-11T16:28:07.725Z,1.92
2023-09-11T16:30:35.135Z,2.22
2023-09-11T16:33:04.248Z,3.15
2023-09-11T16:35:34.587Z,3.28
2023-09-11T16:38:01.794Z,4.05
2023-09-11T16:40:28.702Z,6.28
2023-09-11T16:42:55.735Z,4.30
2023-09-11T16:45:22.703Z,1.88
2023-09-11T16:47:49.914Z,2.20
2023-09-11T16:50:19.626Z,2.20
2023-09-11T16:52:47.904Z,1.95
2023-09-11T16:55:15.265Z,1.83
2023-09-11T16:57:42.848Z,1.85
2023-09-11T17:00:10.694Z,3.25
2023-09-11T17:02:41.382Z,2.15
2023-09-11T17:05:11.749Z,3.25
2023-09-11T17:07:38.725Z,3.38
2023-09-11T17:10:08.354Z,4.10
2023-09-11T17:12:35.741Z,1.88
2023-09-11T17:15:05.547Z,2.10
2023-09-11T17:17:33.751Z,2.55
2023-09-11T17:20:00.781Z,1.73
2023-09-11T17:22:30.140Z,2.80
2023-09-11T17:24:57.524Z,2.63
2023-09-11T17:27:28.793Z,2.08
2023-09-11T17:30:00.230Z,1.42
2023-09-11T17:32:27.179Z,1.00
2023-09-11T17:34:54.126Z,1.30
2023-09-11T17:37:21.685Z,1.90
2023-09-11T17:39:50.460Z,3.08
2023-09-11T17:42:17.426Z,2.40
2023-09-11T17:44:45.488Z,1.85
2023-09-11T17:47:15.119Z,1.15
2023-09-11T17:49:44.694Z,2.00
2023-09-11T17:52:12.869Z,1.10
2023-09-11T17:54:39.919Z,1.10
2023-09-11T17:57:08.500Z,0.95
2023-09-11T17:59:35.874Z,1.58
2023-09-11T18:02:04.336Z,1.60
2023-09-11T18:04:34.530Z,0.90
2023-09-11T18:07:01.593Z,0.93
2023-09-11T18:09:28.901Z,0.85
2023-09-11T18:11:56.492Z,2.97
2023-09-11T18:14:26.021Z,1.98
2023-09-11T18:16:54.301Z,0.80
2023-09-11T18:19:21.968Z,0.70
2023-09-11T18:21:49.626Z,0.80
2023-09-11T18:26:59.800Z,1.33
2023-09-11T18:29:28.376Z,3.45
2023-09-11T18:31:56.885Z,3.75
2023-09-11T18:34:27.408Z,1.98
2023-09-11T18:36:57.920Z,0.90
2023-09-11T18:39:28.357Z,2.08
2023-09-11T18:41:58.880Z,4.15
2023-09-11T18:44:27.985Z,3.30
2023-09-11T18:46:55.637Z,2.70
2023-09-11T18:49:24.962Z,3.60
2023-09-11T18:51:55.213Z,2.17
2023-09-11T18:54:26.974Z,2.67
2023-09-11T18:56:59.477Z,0.98
2023-09-11T18:59:29.462Z,0.98
2023-09-11T19:02:05.072Z,1.20
2023-09-11T19:04:34.361Z,1.27
2023-09-11T19:07:02.435Z,3.50
2023-09-11T19:09:29.532Z,2.20
2023-09-11T19:11:56.595Z,3.15
2023-09-11T19:14:23.567Z,1.20
2023-09-11T19:16:50.449Z,1.13
2023-09-11T19:19:17.642Z,1.20
2023-09-11T19:21:47.074Z,0.85
2023-09-11T19:24:15.082Z,0.60
2023-09-11T19:26:42.416Z,0.47
2023-09-11T19:29:09.341Z,0.60
2023-09-11T19:31:36.404Z,0.60
2023-09-11T19:34:04.399Z,0.30
2023-09-11T19:36:32.840Z,0.60
2023-09-11T19:39:02.407Z,0.60
2023-09-11T19:41:30.220Z,0.40
2023-09-11T19:44:53.630Z,1.00
2023-09-11T19:47:21.988Z,0.70
2023-09-11T19:49:49.212Z,0.80
2023-09-11T19:52:16.048Z,1.10
2023-09-11T19:54:44.093Z,0.65
2023-09-11T19:57:10.953Z,0.88
2023-09-11T19:59:37.861Z,0.80
2023-09-11T20:02:04.710Z,0.95
2023-09-11T20:04:31.480Z,0.70
2023-09-11T20:06:58.196Z,0.70
2023-09-11T20:09:24.924Z,0.90
2023-09-11T20:11:51.701Z,0.95
2023-09-11T20:14:18.478Z,0.80
2023-09-11T20:16:45.231Z,0.80
2023-09-11T20:19:11.977Z,0.82
2023-09-11T20:21:39.001Z,1.35
2023-09-11T20:24:06.204Z,1.15
2023-09-11T20:26:32.957Z,0.70
2023-09-11T20:28:59.597Z,1.20
2023-09-11T20:31:26.509Z,1.33
2023-09-11T20:33:53.332Z,1.70
2023-09-11T20:36:21.162Z,0.90
2023-09-11T20:38:50.686Z,1.38
2023-09-11T20:41:18.821Z,1.52
2023-09-11T20:43:47.398Z,1.15
2023-09-11T20:46:14.364Z,1.10
2023-09-11T20:48:42.183Z,1.40
2023-09-11T20:51:11.442Z,1.40
2023-09-11T20:53:39.289Z,1.10
2023-09-11T20:56:07.516Z,1.25
2023-09-11T20:58:34.987Z,0.70
2023-09-11T21:01:06.344Z,0.52
2023-09-11T21:03:33.876Z,0.70
2023-09-11T21:06:01.219Z,0.90
2023-09-11T21:08:28.396Z,0.63
2023-09-11T21:10:55.325Z,0.70
2023-09-11T21:13:23.814Z,0.77
2023-09-11T21:15:51.090Z,0.60
2023-09-11T21:18:18.345Z,1.00
2023-09-11T21:20:45.296Z,0.75
2023-09-11T21:23:12.026Z,0.80
2023-09-11T21:25:39.046Z,1.13
2023-09-11T21:28:06.939Z,1.10
2023-09-11T21:30:35.029Z,0.90
2023-09-11T21:33:01.929Z,0.93
2023-09-11T21:35:28.881Z,0.82
2023-09-11T21:37:55.849Z,1.25
2023-09-11T21:40:22.598Z,1.50
2023-09-11T21:42:49.306Z,1.25
2023-09-11T21:45:16.536Z,1.20
2023-09-11T21:47:43.345Z,0.80
2023-09-11T21:50:10.278Z,1.10
2023-09-11T21:52:37.036Z,1.25
2023-09-11T21:55:04.508Z,1.40
2023-09-11T21:57:31.414Z,1.17
2023-09-11T21:59:59.826Z,1.55
2023-09-11T22:02:27.047Z,1.92
2023-09-11T22:04:53.775Z,1.48
2023-09-11T22:07:20.562Z,1.70
2023-09-11T22:09:47.306Z,1.42
2023-09-11T22:12:14.102Z,1.60
2023-09-11T22:14:40.893Z,1.55
2023-09-11T22:17:08.756Z,1.50
2023-09-11T22:19:37.168Z,1.50
2023-09-11T22:22:04.020Z,1.00
2023-09-11T22:24:30.774Z,1.40
2023-09-11T22:27:00.910Z,1.52
2023-09-11T22:29:33.546Z,1.90
2023-09-11T22:32:01.000Z,1.60
2023-09-11T22:34:28.044Z,1.40
2023-09-11T22:36:55.209Z,0.93
2023-09-11T22:39:21.947Z,1.20
2023-09-11T22:41:49.164Z,1.23
2023-09-11T22:44:15.992Z,1.25
2023-09-11T22:46:42.743Z,1.20
2023-09-11T22:49:09.772Z,1.02
2023-09-11T22:51:38.406Z,2.42
2023-09-11T22:54:05.276Z,1.73
2023-09-11T22:56:31.917Z,1.50
2023-09-11T22:59:01.284Z,1.15
2023-09-11T23:01:28.612Z,1.92
2023-09-11T23:03:56.065Z,1.55
2023-09-11T23:06:22.990Z,1.08
2023-09-11T23:08:49.716Z,1.45
2023-09-11T23:11:16.445Z,1.40
2023-09-11T23:13:43.140Z,1.88
2023-09-11T23:16:10.387Z,1.30
2023-09-11T23:18:37.281Z,1.00
2023-09-11T23:21:04.247Z,1.00
2023-09-11T23:23:40.632Z,1.38
2023-09-11T23:26:07.980Z,2.33
2023-09-11T23:28:35.081Z,1.15
2023-09-11T23:31:02.550Z,2.92
2023-09-11T23:33:29.336Z,2.28
2023-09-11T23:35:59.321Z,2.40
2023-09-11T23:38:28.143Z,2.55
2023-09-11T23:40:54.849Z,2.53
2023-09-11T23:43:21.572Z,2.67
2023-09-11T23:45:49.215Z,3.03
2023-09-11T23:48:15.959Z,3.25
2023-09-11T23:50:44.164Z,2.72
2023-09-11T23:53:12.933Z,3.13
2023-09-11T23:55:40.405Z,2.90
2023-09-11T23:58:07.089Z,2.10
